sensor_id;sensor_type;location;lat;lon;timestamp;P1;durP1;ratioP1;P2;durP2;ratioP2
41815;SDS011;27814;53.452;-6.180;2022-12-29T00:01:12;3.50;;;1.00;;
41815;SDS011;27814;53.452;-6.180;2022-12-29T00:03:41;3.28;;;0.82;;
41815;SDS011;27814;53.452;-6.180;2022-12-29T00:06:12;3.90;;;1.20;;
41815;SDS011;27814;53.452;-6.180;2022-12-29T00:08:41;4.30;;;1.08;;
41815;SDS011;27814;53.452;-6.180;2022-12-29T00:11:10;2.70;;;0.80;;
41815;SDS011;27814;53.452;-6.180;2022-12-29T00:13:39;2.45;;;0.90;;
41815;SDS011;27814;53.452;-6.180;2022-12-29T00:16:25;2.83;;;0.80;;
41815;SDS011;27814;53.452;-6.180;2022-12-29T00:18:56;2.60;;;0.90;;
41815;SDS011;27814;53.452;-6.180;2022-12-29T00:21:25;3.10;;;0.80;;
41815;SDS011;27814;53.452;-6.180;2022-12-29T00:24:13;3.92;;;0.90;;
41815;SDS011;27814;53.452;-6.180;2022-12-29T00:27:08;1.95;;;0.90;;
41815;SDS011;27814;53.452;-6.180;2022-12-29T00:29:55;3.00;;;0.90;;
41815;SDS011;27814;53.452;-6.180;2022-12-29T00:32:41;3.30;;;1.05;;
41815;SDS011;27814;53.452;-6.180;2022-12-29T00:35:30;3.00;;;0.77;;
41815;SDS011;27814;53.452;-6.180;2022-12-29T00:38:03;3.38;;;0.85;;
41815;SDS011;27814;53.452;-6.180;2022-12-29T00:40:50;2.25;;;0.80;;
41815;SDS011;27814;53.452;-6.180;2022-12-29T00:43:35;2.17;;;0.65;;
41815;SDS011;27814;53.452;-6.180;2022-12-29T00:46:21;3.80;;;0.75;;
41815;SDS011;27814;53.452;-6.180;2022-12-29T00:48:49;1.77;;;0.70;;
41815;SDS011;27814;53.452;-6.180;2022-12-29T00:51:36;6.03;;;1.02;;
41815;SDS011;27814;53.452;-6.180;2022-12-29T00:54:05;3.17;;;0.80;;
41815;SDS011;27814;53.452;-6.180;2022-12-29T00:56:33;5.68;;;1.02;;
41815;SDS011;27814;53.452;-6.180;2022-12-29T00:59:02;4.22;;;1.08;;
41815;SDS011;27814;53.452;-6.180;2022-12-29T01:01:32;4.90;;;0.90;;
41815;SDS011;27814;53.452;-6.180;2022-12-29T01:04:01;3.38;;;0.63;;
41815;SDS011;27814;53.452;-6.180;2022-12-29T01:06:30;3.00;;;0.90;;
41815;SDS011;27814;53.452;-6.180;2022-12-29T01:09:00;2.90;;;0.60;;
41815;SDS011;27814;53.452;-6.180;2022-12-29T01:11:46;4.47;;;0.80;;
41815;SDS011;27814;53.452;-6.180;2022-12-29T01:14:15;3.20;;;0.82;;
41815;SDS011;27814;53.452;-6.180;2022-12-29T01:16:44;4.05;;;1.00;;
41815;SDS011;27814;53.452;-6.180;2022-12-29T01:19:13;3.23;;;0.80;;
41815;SDS011;27814;53.452;-6.180;2022-12-29T01:21:43;4.10;;;1.33;;
41815;SDS011;27814;53.452;-6.180;2022-12-29T01:24:13;3.38;;;0.70;;
41815;SDS011;27814;53.452;-6.180;2022-12-29T01:26:42;3.23;;;0.80;;
41815;SDS011;27814;53.452;-6.180;2022-12-29T01:29:11;3.85;;;0.90;;
41815;SDS011;27814;53.452;-6.180;2022-12-29T01:31:39;3.45;;;0.90;;
41815;SDS011;27814;53.452;-6.180;2022-12-29T01:34:08;2.90;;;0.63;;
41815;SDS011;27814;53.452;-6.180;2022-12-29T01:36:36;2.60;;;0.98;;
41815;SDS011;27814;53.452;-6.180;2022-12-29T01:39:04;4.45;;;1.15;;
41815;SDS011;27814;53.452;-6.180;2022-12-29T01:41:34;3.17;;;0.77;;
41815;SDS011;27814;53.452;-6.180;2022-12-29T01:44:02;5.72;;;1.50;;
41815;SDS011;27814;53.452;-6.180;2022-12-29T01:46:45;3.33;;;0.80;;
41815;SDS011;27814;53.452;-6.180;2022-12-29T01:49:19;2.67;;;0.50;;
41815;SDS011;27814;53.452;-6.180;2022-12-29T01:51:52;3.78;;;0.60;;
41815;SDS011;27814;53.452;-6.180;2022-12-29T01:54:24;2.92;;;0.80;;
41815;SDS011;27814;53.452;-6.180;2022-12-29T01:56:58;5.25;;;0.80;;
41815;SDS011;27814;53.452;-6.180;2022-12-29T01:59:30;3.65;;;0.90;;
41815;SDS011;27814;53.452;-6.180;2022-12-29T02:02:01;3.42;;;0.88;;
41815;SDS011;27814;53.452;-6.180;2022-12-29T02:04:31;3.72;;;0.70;;
41815;SDS011;27814;53.452;-6.180;2022-12-29T02:07:00;4.43;;;0.90;;
41815;SDS011;27814;53.452;-6.180;2022-12-29T02:09:32;3.97;;;0.70;;
41815;SDS011;27814;53.452;-6.180;2022-12-29T02:12:02;4.20;;;0.98;;
41815;SDS011;27814;53.452;-6.180;2022-12-29T02:14:31;1.97;;;0.53;;
41815;SDS011;27814;53.452;-6.180;2022-12-29T02:17:01;4.70;;;0.98;;
41815;SDS011;27814;53.452;-6.180;2022-12-29T02:22:30;4.53;;;0.70;;
41815;SDS011;27814;53.452;-6.180;2022-12-29T02:28:16;3.80;;;0.80;;
41815;SDS011;27814;53.452;-6.180;2022-12-29T02:31:06;4.03;;;0.80;;
41815;SDS011;27814;53.452;-6.180;2022-12-29T02:33:44;2.33;;;0.60;;
41815;SDS011;27814;53.452;-6.180;2022-12-29T02:36:27;3.33;;;0.70;;
41815;SDS011;27814;53.452;-6.180;2022-12-29T02:39:04;2.20;;;0.55;;
41815;SDS011;27814;53.452;-6.180;2022-12-29T02:41:42;4.93;;;0.90;;
41815;SDS011;27814;53.452;-6.180;2022-12-29T02:44:22;4.82;;;0.77;;
41815;SDS011;27814;53.452;-6.180;2022-12-29T02:46:58;5.20;;;0.80;;
41815;SDS011;27814;53.452;-6.180;2022-12-29T02:49:33;6.72;;;0.70;;
41815;SDS011;27814;53.452;-6.180;2022-12-29T02:52:08;5.13;;;0.98;;
41815;SDS011;27814;53.452;-6.180;2022-12-29T02:54:40;4.70;;;1.02;;
41815;SDS011;27814;53.452;-6.180;2022-12-29T02:57:10;5.25;;;0.98;;
41815;SDS011;27814;53.452;-6.180;2022-12-29T02:59:40;3.65;;;0.98;;
41815;SDS011;27814;53.452;-6.180;2022-12-29T03:02:24;4.70;;;1.15;;
41815;SDS011;27814;53.452;-6.180;2022-12-29T03:05:21;5.35;;;0.80;;
41815;SDS011;27814;53.452;-6.180;2022-12-29T03:07:57;5.07;;;0.90;;
41815;SDS011;27814;53.452;-6.180;2022-12-29T03:10:35;5.13;;;0.90;;
41815;SDS011;27814;53.452;-6.180;2022-12-29T03:13:15;5.10;;;0.73;;
41815;SDS011;27814;53.452;-6.180;2022-12-29T03:16:11;4.32;;;0.90;;
41815;SDS011;27814;53.452;-6.180;2022-12-29T03:18:49;5.47;;;0.88;;
41815;SDS011;27814;53.452;-6.180;2022-12-29T03:21:26;7.50;;;0.82;;
41815;SDS011;27814;53.452;-6.180;2022-12-29T03:24:18;5.70;;;0.85;;
41815;SDS011;27814;53.452;-6.180;2022-12-29T03:26:50;3.70;;;0.60;;
41815;SDS011;27814;53.452;-6.180;2022-12-29T03:29:21;7.93;;;1.02;;
41815;SDS011;27814;53.452;-6.180;2022-12-29T03:31:51;4.85;;;0.60;;
41815;SDS011;27814;53.452;-6.180;2022-12-29T03:34:22;5.82;;;0.80;;
41815;SDS011;27814;53.452;-6.180;2022-12-29T03:36:53;3.35;;;0.90;;
41815;SDS011;27814;53.452;-6.180;2022-12-29T03:39:26;4.50;;;0.60;;
41815;SDS011;27814;53.452;-6.180;2022-12-29T03:41:57;3.45;;;0.60;;
41815;SDS011;27814;53.452;-6.180;2022-12-29T03:44:32;2.53;;;0.60;;
41815;SDS011;27814;53.452;-6.180;2022-12-29T03:47:03;5.43;;;0.93;;
41815;SDS011;27814;53.452;-6.180;2022-12-29T03:49:34;5.18;;;0.80;;
41815;SDS011;27814;53.452;-6.180;2022-12-29T03:52:02;4.32;;;0.52;;
41815;SDS011;27814;53.452;-6.180;2022-12-29T03:54:31;2.95;;;0.50;;
41815;SDS011;27814;53.452;-6.180;2022-12-29T03:57:00;5.93;;;0.70;;
41815;SDS011;27814;53.452;-6.180;2022-12-29T03:59:28;6.65;;;0.90;;
41815;SDS011;27814;53.452;-6.180;2022-12-29T04:01:56;3.22;;;0.50;;
41815;SDS011;27814;53.452;-6.180;2022-12-29T04:04:25;5.60;;;0.70;;
41815;SDS011;27814;53.452;-6.180;2022-12-29T04:06:55;3.80;;;0.70;;
41815;SDS011;27814;53.452;-6.180;2022-12-29T04:09:23;4.78;;;0.70;;
41815;SDS011;27814;53.452;-6.180;2022-12-29T04:11:51;4.75;;;0.60;;
41815;SDS011;27814;53.452;-6.180;2022-12-29T04:14:19;5.40;;;0.63;;
41815;SDS011;27814;53.452;-6.180;2022-12-29T04:16:48;3.05;;;0.70;;
41815;SDS011;27814;53.452;-6.180;2022-12-29T04:19:16;4.20;;;0.70;;
41815;SDS011;27814;53.452;-6.180;2022-12-29T04:21:44;4.10;;;0.55;;
41815;SDS011;27814;53.452;-6.180;2022-12-29T04:24:14;4.22;;;0.60;;
41815;SDS011;27814;53.452;-6.180;2022-12-29T04:26:44;4.90;;;0.70;;
41815;SDS011;27814;53.452;-6.180;2022-12-29T04:29:12;4.93;;;0.68;;
41815;SDS011;27814;53.452;-6.180;2022-12-29T04:31:40;6.28;;;0.80;;
41815;SDS011;27814;53.452;-6.180;2022-12-29T04:34:09;3.83;;;0.70;;
41815;SDS011;27814;53.452;-6.180;2022-12-29T04:36:37;7.97;;;1.00;;
41815;SDS011;27814;53.452;-6.180;2022-12-29T04:39:06;4.85;;;1.00;;
41815;SDS011;27814;53.452;-6.180;2022-12-29T04:41:36;3.67;;;0.70;;
41815;SDS011;27814;53.452;-6.180;2022-12-29T04:44:05;4.47;;;0.77;;
41815;SDS011;27814;53.452;-6.180;2022-12-29T04:46:33;6.33;;;1.20;;
41815;SDS011;27814;53.452;-6.180;2022-12-29T04:49:01;6.22;;;1.02;;
41815;SDS011;27814;53.452;-6.180;2022-12-29T04:51:35;8.65;;;1.30;;
41815;SDS011;27814;53.452;-6.180;2022-12-29T04:54:03;5.53;;;0.90;;
41815;SDS011;27814;53.452;-6.180;2022-12-29T04:56:32;9.50;;;0.93;;
41815;SDS011;27814;53.452;-6.180;2022-12-29T04:59:02;5.68;;;1.15;;
41815;SDS011;27814;53.452;-6.180;2022-12-29T05:01:30;6.03;;;1.15;;
41815;SDS011;27814;53.452;-6.180;2022-12-29T05:03:59;9.23;;;1.40;;
41815;SDS011;27814;53.452;-6.180;2022-12-29T05:06:27;7.68;;;1.33;;
41815;SDS011;27814;53.452;-6.180;2022-12-29T05:08:56;9.80;;;1.23;;
41815;SDS011;27814;53.452;-6.180;2022-12-29T05:11:24;6.68;;;1.17;;
41815;SDS011;27814;53.452;-6.180;2022-12-29T05:13:52;6.47;;;1.20;;
41815;SDS011;27814;53.452;-6.180;2022-12-29T05:16:22;7.85;;;1.23;;
41815;SDS011;27814;53.452;-6.180;2022-12-29T05:18:50;10.27;;;1.27;;
41815;SDS011;27814;53.452;-6.180;2022-12-29T05:21:19;4.28;;;1.05;;
41815;SDS011;27814;53.452;-6.180;2022-12-29T05:23:48;5.03;;;0.93;;
41815;SDS011;27814;53.452;-6.180;2022-12-29T05:26:16;8.27;;;1.03;;
41815;SDS011;27814;53.452;-6.180;2022-12-29T05:28:44;8.85;;;1.30;;
41815;SDS011;27814;53.452;-6.180;2022-12-29T05:31:13;6.43;;;0.83;;
41815;SDS011;27814;53.452;-6.180;2022-12-29T05:33:43;6.53;;;1.10;;
41815;SDS011;27814;53.452;-6.180;2022-12-29T05:36:12;7.10;;;1.02;;
41815;SDS011;27814;53.452;-6.180;2022-12-29T05:38:40;6.63;;;1.23;;
41815;SDS011;27814;53.452;-6.180;2022-12-29T05:41:09;5.55;;;1.13;;
41815;SDS011;27814;53.452;-6.180;2022-12-29T05:43:37;6.72;;;1.08;;
41815;SDS011;27814;53.452;-6.180;2022-12-29T05:46:05;8.48;;;1.45;;
41815;SDS011;27814;53.452;-6.180;2022-12-29T05:48:33;9.18;;;1.30;;
41815;SDS011;27814;53.452;-6.180;2022-12-29T05:51:05;9.05;;;1.20;;
41815;SDS011;27814;53.452;-6.180;2022-12-29T05:53:33;8.23;;;1.30;;
41815;SDS011;27814;53.452;-6.180;2022-12-29T05:56:01;8.45;;;1.40;;
41815;SDS011;27814;53.452;-6.180;2022-12-29T05:58:30;3.60;;;0.93;;
41815;SDS011;27814;53.452;-6.180;2022-12-29T06:00:58;4.85;;;1.17;;
41815;SDS011;27814;53.452;-6.180;2022-12-29T06:03:27;5.15;;;1.05;;
41815;SDS011;27814;53.452;-6.180;2022-12-29T06:05:55;7.55;;;1.17;;
41815;SDS011;27814;53.452;-6.180;2022-12-29T06:08:25;8.23;;;0.98;;
41815;SDS011;27814;53.452;-6.180;2022-12-29T06:10:53;5.85;;;0.90;;
41815;SDS011;27814;53.452;-6.180;2022-12-29T06:13:22;6.63;;;1.13;;
41815;SDS011;27814;53.452;-6.180;2022-12-29T06:15:50;6.82;;;1.10;;
41815;SDS011;27814;53.452;-6.180;2022-12-29T06:18:19;5.30;;;1.00;;
41815;SDS011;27814;53.452;-6.180;2022-12-29T06:20:47;9.23;;;1.05;;
41815;SDS011;27814;53.452;-6.180;2022-12-29T06:23:16;6.43;;;1.00;;
41815;SDS011;27814;53.452;-6.180;2022-12-29T06:25:47;6.78;;;0.85;;
41815;SDS011;27814;53.452;-6.180;2022-12-29T06:28:15;7.65;;;1.45;;
41815;SDS011;27814;53.452;-6.180;2022-12-29T06:30:45;7.55;;;1.08;;
41815;SDS011;27814;53.452;-6.180;2022-12-29T06:33:14;9.40;;;1.33;;
41815;SDS011;27814;53.452;-6.180;2022-12-29T06:35:43;8.60;;;1.65;;
41815;SDS011;27814;53.452;-6.180;2022-12-29T06:38:12;8.10;;;0.90;;
41815;SDS011;27814;53.452;-6.180;2022-12-29T06:40:41;6.88;;;1.20;;
41815;SDS011;27814;53.452;-6.180;2022-12-29T06:43:12;6.60;;;1.27;;
41815;SDS011;27814;53.452;-6.180;2022-12-29T06:45:41;6.70;;;0.90;;
41815;SDS011;27814;53.452;-6.180;2022-12-29T06:48:10;7.85;;;1.38;;
41815;SDS011;27814;53.452;-6.180;2022-12-29T06:50:38;9.83;;;1.50;;
41815;SDS011;27814;53.452;-6.180;2022-12-29T06:53:06;9.02;;;1.33;;
41815;SDS011;27814;53.452;-6.180;2022-12-29T06:55:34;9.07;;;1.30;;
41815;SDS011;27814;53.452;-6.180;2022-12-29T06:58:03;7.03;;;1.40;;
41815;SDS011;27814;53.452;-6.180;2022-12-29T07:00:33;12.70;;;1.55;;
41815;SDS011;27814;53.452;-6.180;2022-12-29T07:03:01;10.30;;;1.45;;
41815;SDS011;27814;53.452;-6.180;2022-12-29T07:05:30;8.23;;;1.25;;
41815;SDS011;27814;53.452;-6.180;2022-12-29T07:07:59;6.68;;;1.48;;
41815;SDS011;27814;53.452;-6.180;2022-12-29T07:10:27;7.75;;;1.50;;
41815;SDS011;27814;53.452;-6.180;2022-12-29T07:12:56;8.15;;;1.88;;
41815;SDS011;27814;53.452;-6.180;2022-12-29T07:15:24;5.82;;;1.40;;
41815;SDS011;27814;53.452;-6.180;2022-12-29T07:17:54;8.73;;;1.38;;
41815;SDS011;27814;53.452;-6.180;2022-12-29T07:20:22;6.70;;;1.30;;
41815;SDS011;27814;53.452;-6.180;2022-12-29T07:22:52;9.63;;;1.35;;
41815;SDS011;27814;53.452;-6.180;2022-12-29T07:25:21;6.93;;;1.40;;
41815;SDS011;27814;53.452;-6.180;2022-12-29T07:27:49;10.27;;;1.50;;
41815;SDS011;27814;53.452;-6.180;2022-12-29T07:30:17;11.07;;;1.48;;
41815;SDS011;27814;53.452;-6.180;2022-12-29T07:32:46;7.30;;;1.42;;
41815;SDS011;27814;53.452;-6.180;2022-12-29T07:35:15;7.10;;;1.48;;
41815;SDS011;27814;53.452;-6.180;2022-12-29T07:37:44;10.40;;;1.60;;
41815;SDS011;27814;53.452;-6.180;2022-12-29T07:40:12;6.00;;;1.52;;
41815;SDS011;27814;53.452;-6.180;2022-12-29T07:42:41;5.70;;;1.00;;
41815;SDS011;27814;53.452;-6.180;2022-12-29T07:45:09;5.85;;;1.00;;
41815;SDS011;27814;53.452;-6.180;2022-12-29T07:47:38;4.93;;;1.00;;
41815;SDS011;27814;53.452;-6.180;2022-12-29T07:50:06;5.90;;;1.30;;
41815;SDS011;27814;53.452;-6.180;2022-12-29T07:52:36;6.13;;;1.25;;
41815;SDS011;27814;53.452;-6.180;2022-12-29T07:55:05;8.85;;;1.95;;
41815;SDS011;27814;53.452;-6.180;2022-12-29T07:57:34;10.00;;;1.40;;
41815;SDS011;27814;53.452;-6.180;2022-12-29T08:00:02;10.73;;;1.85;;
41815;SDS011;27814;53.452;-6.180;2022-12-29T08:02:31;7.20;;;1.73;;
41815;SDS011;27814;53.452;-6.180;2022-12-29T08:05:00;9.07;;;1.98;;
41815;SDS011;27814;53.452;-6.180;2022-12-29T08:07:28;10.95;;;1.73;;
41815;SDS011;27814;53.452;-6.180;2022-12-29T08:09:58;9.27;;;1.70;;
41815;SDS011;27814;53.452;-6.180;2022-12-29T08:12:28;10.85;;;1.77;;
41815;SDS011;27814;53.452;-6.180;2022-12-29T08:14:56;10.20;;;1.20;;
41815;SDS011;27814;53.452;-6.180;2022-12-29T08:17:25;7.18;;;1.25;;
41815;SDS011;27814;53.452;-6.180;2022-12-29T08:19:53;8.85;;;1.20;;
41815;SDS011;27814;53.452;-6.180;2022-12-29T08:22:22;6.68;;;1.50;;
41815;SDS011;27814;53.452;-6.180;2022-12-29T08:24:50;9.43;;;1.30;;
41815;SDS011;27814;53.452;-6.180;2022-12-29T08:27:20;7.65;;;1.15;;
41815;SDS011;27814;53.452;-6.180;2022-12-29T08:29:49;7.32;;;1.40;;
41815;SDS011;27814;53.452;-6.180;2022-12-29T08:32:17;8.27;;;1.33;;
41815;SDS011;27814;53.452;-6.180;2022-12-29T08:34:46;7.40;;;1.30;;
41815;SDS011;27814;53.452;-6.180;2022-12-29T08:37:14;6.82;;;1.27;;
41815;SDS011;27814;53.452;-6.180;2022-12-29T08:39:42;6.30;;;1.20;;
41815;SDS011;27814;53.452;-6.180;2022-12-29T08:42:11;8.55;;;1.27;;
41815;SDS011;27814;53.452;-6.180;2022-12-29T08:44:41;7.30;;;1.00;;
41815;SDS011;27814;53.452;-6.180;2022-12-29T08:47:09;6.20;;;1.10;;
41815;SDS011;27814;53.452;-6.180;2022-12-29T08:49:39;4.63;;;0.90;;
41815;SDS011;27814;53.452;-6.180;2022-12-29T08:52:07;6.53;;;1.20;;
41815;SDS011;27814;53.452;-6.180;2022-12-29T08:54:35;6.38;;;0.93;;
41815;SDS011;27814;53.452;-6.180;2022-12-29T08:57:03;4.30;;;0.90;;
41815;SDS011;27814;53.452;-6.180;2022-12-29T08:59:32;6.13;;;1.00;;
41815;SDS011;27814;53.452;-6.180;2022-12-29T09:02:02;8.45;;;1.30;;
41815;SDS011;27814;53.452;-6.180;2022-12-29T09:04:30;5.05;;;1.20;;
41815;SDS011;27814;53.452;-6.180;2022-12-29T09:07:00;6.25;;;0.95;;
41815;SDS011;27814;53.452;-6.180;2022-12-29T09:09:28;6.45;;;0.90;;
41815;SDS011;27814;53.452;-6.180;2022-12-29T09:11:56;9.80;;;1.30;;
41815;SDS011;27814;53.452;-6.180;2022-12-29T09:14:25;6.07;;;1.08;;
41815;SDS011;27814;53.452;-6.180;2022-12-29T09:16:53;7.80;;;1.20;;
41815;SDS011;27814;53.452;-6.180;2022-12-29T09:19:41;5.43;;;1.17;;
41815;SDS011;27814;53.452;-6.180;2022-12-29T09:22:09;6.03;;;1.20;;
41815;SDS011;27814;53.452;-6.180;2022-12-29T09:24:37;8.07;;;1.33;;
41815;SDS011;27814;53.452;-6.180;2022-12-29T09:27:05;5.65;;;0.85;;
41815;SDS011;27814;53.452;-6.180;2022-12-29T09:29:34;4.90;;;0.90;;
41815;SDS011;27814;53.452;-6.180;2022-12-29T09:32:02;3.83;;;1.00;;
41815;SDS011;27814;53.452;-6.180;2022-12-29T09:34:33;8.75;;;1.20;;
41815;SDS011;27814;53.452;-6.180;2022-12-29T09:37:03;5.25;;;1.00;;
41815;SDS011;27814;53.452;-6.180;2022-12-29T09:39:31;3.80;;;1.05;;
41815;SDS011;27814;53.452;-6.180;2022-12-29T09:42:01;6.47;;;1.00;;
41815;SDS011;27814;53.452;-6.180;2022-12-29T09:44:42;7.05;;;1.40;;
41815;SDS011;27814;53.452;-6.180;2022-12-29T09:47:19;4.78;;;0.98;;
41815;SDS011;27814;53.452;-6.180;2022-12-29T09:49:51;3.90;;;1.20;;
41815;SDS011;27814;53.452;-6.180;2022-12-29T09:52:23;7.17;;;1.40;;
41815;SDS011;27814;53.452;-6.180;2022-12-29T09:54:57;7.80;;;1.15;;
41815;SDS011;27814;53.452;-6.180;2022-12-29T09:57:38;6.68;;;1.95;;
41815;SDS011;27814;53.452;-6.180;2022-12-29T10:00:12;8.18;;;1.23;;
41815;SDS011;27814;53.452;-6.180;2022-12-29T10:02:44;7.47;;;1.27;;
41815;SDS011;27814;53.452;-6.180;2022-12-29T10:05:20;5.80;;;1.10;;
41815;SDS011;27814;53.452;-6.180;2022-12-29T10:07:59;6.00;;;1.20;;
41815;SDS011;27814;53.452;-6.180;2022-12-29T10:10:43;6.10;;;1.27;;
41815;SDS011;27814;53.452;-6.180;2022-12-29T10:13:22;5.60;;;0.90;;
41815;SDS011;27814;53.452;-6.180;2022-12-29T10:16:05;5.07;;;0.98;;
41815;SDS011;27814;53.452;-6.180;2022-12-29T10:21:37;6.30;;;0.80;;
41815;SDS011;27814;53.452;-6.180;2022-12-29T10:24:16;6.30;;;1.00;;
41815;SDS011;27814;53.452;-6.180;2022-12-29T10:26:46;5.60;;;1.13;;
41815;SDS011;27814;53.452;-6.180;2022-12-29T10:29:19;7.00;;;0.88;;
41815;SDS011;27814;53.452;-6.180;2022-12-29T10:31:50;7.45;;;1.13;;
41815;SDS011;27814;53.452;-6.180;2022-12-29T10:34:26;5.50;;;1.20;;
41815;SDS011;27814;53.452;-6.180;2022-12-29T10:37:00;8.18;;;1.55;;
41815;SDS011;27814;53.452;-6.180;2022-12-29T10:39:37;10.15;;;1.35;;
41815;SDS011;27814;53.452;-6.180;2022-12-29T10:42:12;7.03;;;1.35;;
41815;SDS011;27814;53.452;-6.180;2022-12-29T10:44:43;7.90;;;1.58;;
41815;SDS011;27814;53.452;-6.180;2022-12-29T10:47:13;6.35;;;1.00;;
41815;SDS011;27814;53.452;-6.180;2022-12-29T10:49:47;9.07;;;1.50;;
41815;SDS011;27814;53.452;-6.180;2022-12-29T10:52:16;6.30;;;1.10;;
41815;SDS011;27814;53.452;-6.180;2022-12-29T10:54:49;6.22;;;1.27;;
41815;SDS011;27814;53.452;-6.180;2022-12-29T10:57:24;6.22;;;1.25;;
41815;SDS011;27814;53.452;-6.180;2022-12-29T10:59:56;4.83;;;1.43;;
41815;SDS011;27814;53.452;-6.180;2022-12-29T11:05:20;5.00;;;1.10;;
41815;SDS011;27814;53.452;-6.180;2022-12-29T11:07:56;7.28;;;1.08;;
41815;SDS011;27814;53.452;-6.180;2022-12-29T11:10:34;8.38;;;1.25;;
41815;SDS011;27814;53.452;-6.180;2022-12-29T11:13:10;3.53;;;0.80;;
41815;SDS011;27814;53.452;-6.180;2022-12-29T11:15:41;5.13;;;1.00;;
41815;SDS011;27814;53.452;-6.180;2022-12-29T11:18:20;5.00;;;1.00;;
41815;SDS011;27814;53.452;-6.180;2022-12-29T11:20:51;4.80;;;0.75;;
41815;SDS011;27814;53.452;-6.180;2022-12-29T11:23:22;4.10;;;0.80;;
41815;SDS011;27814;53.452;-6.180;2022-12-29T11:29:14;3.10;;;0.80;;
41815;SDS011;27814;53.452;-6.180;2022-12-29T11:31:49;3.70;;;0.70;;
41815;SDS011;27814;53.452;-6.180;2022-12-29T11:34:20;4.27;;;1.10;;
41815;SDS011;27814;53.452;-6.180;2022-12-29T11:36:51;4.40;;;0.80;;
41815;SDS011;27814;53.452;-6.180;2022-12-29T11:39:25;4.47;;;1.33;;
41815;SDS011;27814;53.452;-6.180;2022-12-29T11:41:58;3.33;;;0.80;;
41815;SDS011;27814;53.452;-6.180;2022-12-29T11:44:31;2.78;;;0.70;;
41815;SDS011;27814;53.452;-6.180;2022-12-29T11:47:04;1.30;;;0.50;;
41815;SDS011;27814;53.452;-6.180;2022-12-29T11:49:37;2.17;;;0.50;;
41815;SDS011;27814;53.452;-6.180;2022-12-29T11:52:06;3.30;;;0.52;;
41815;SDS011;27814;53.452;-6.180;2022-12-29T11:54:36;5.20;;;0.50;;
41815;SDS011;27814;53.452;-6.180;2022-12-29T11:57:10;4.57;;;0.40;;
41815;SDS011;27814;53.452;-6.180;2022-12-29T11:59:42;1.80;;;0.57;;
41815;SDS011;27814;53.452;-6.180;2022-12-29T12:02:32;2.85;;;0.50;;
41815;SDS011;27814;53.452;-6.180;2022-12-29T12:05:13;3.93;;;0.53;;
41815;SDS011;27814;53.452;-6.180;2022-12-29T12:07:49;2.63;;;0.52;;
41815;SDS011;27814;53.452;-6.180;2022-12-29T12:10:23;2.72;;;0.90;;
41815;SDS011;27814;53.452;-6.180;2022-12-29T12:12:58;3.97;;;0.70;;
41815;SDS011;27814;53.452;-6.180;2022-12-29T12:15:35;2.28;;;0.47;;
41815;SDS011;27814;53.452;-6.180;2022-12-29T12:18:14;4.10;;;1.05;;
41815;SDS011;27814;53.452;-6.180;2022-12-29T12:20:56;3.85;;;0.82;;
41815;SDS011;27814;53.452;-6.180;2022-12-29T12:23:30;2.15;;;0.60;;
41815;SDS011;27814;53.452;-6.180;2022-12-29T12:26:09;3.55;;;0.90;;
41815;SDS011;27814;53.452;-6.180;2022-12-29T12:28:42;3.15;;;0.70;;
41815;SDS011;27814;53.452;-6.180;2022-12-29T12:31:19;3.65;;;0.70;;
41815;SDS011;27814;53.452;-6.180;2022-12-29T12:33:57;4.30;;;0.82;;
41815;SDS011;27814;53.452;-6.180;2022-12-29T12:39:20;3.10;;;0.90;;
41815;SDS011;27814;53.452;-6.180;2022-12-29T12:41:57;5.00;;;0.70;;
41815;SDS011;27814;53.452;-6.180;2022-12-29T12:44:36;4.55;;;0.95;;
41815;SDS011;27814;53.452;-6.180;2022-12-29T12:50:17;4.43;;;1.00;;
41815;SDS011;27814;53.452;-6.180;2022-12-29T12:58:48;6.68;;;1.17;;
41815;SDS011;27814;53.452;-6.180;2022-12-29T13:01:24;4.95;;;1.30;;
41815;SDS011;27814;53.452;-6.180;2022-12-29T13:07:09;3.83;;;1.20;;
41815;SDS011;27814;53.452;-6.180;2022-12-29T13:09:50;5.13;;;1.00;;
41815;SDS011;27814;53.452;-6.180;2022-12-29T13:12:33;3.55;;;1.00;;
41815;SDS011;27814;53.452;-6.180;2022-12-29T13:15:12;5.73;;;1.20;;
41815;SDS011;27814;53.452;-6.180;2022-12-29T13:17:50;4.57;;;1.10;;
41815;SDS011;27814;53.452;-6.180;2022-12-29T13:20:27;4.82;;;1.23;;
41815;SDS011;27814;53.452;-6.180;2022-12-29T13:23:06;3.50;;;0.90;;
41815;SDS011;27814;53.452;-6.180;2022-12-29T13:25:44;7.57;;;1.30;;
41815;SDS011;27814;53.452;-6.180;2022-12-29T13:28:19;4.03;;;0.83;;
41815;SDS011;27814;53.452;-6.180;2022-12-29T13:30:55;4.70;;;1.23;;
41815;SDS011;27814;53.452;-6.180;2022-12-29T13:33:29;5.50;;;1.00;;
41815;SDS011;27814;53.452;-6.180;2022-12-29T13:36:08;3.10;;;0.80;;
41815;SDS011;27814;53.452;-6.180;2022-12-29T13:38:42;4.53;;;1.00;;
41815;SDS011;27814;53.452;-6.180;2022-12-29T13:41:16;3.88;;;1.00;;
41815;SDS011;27814;53.452;-6.180;2022-12-29T13:43:48;4.88;;;1.00;;
41815;SDS011;27814;53.452;-6.180;2022-12-29T13:46:18;3.60;;;0.95;;
41815;SDS011;27814;53.452;-6.180;2022-12-29T13:48:53;4.55;;;1.00;;
41815;SDS011;27814;53.452;-6.180;2022-12-29T13:51:26;3.93;;;0.80;;
41815;SDS011;27814;53.452;-6.180;2022-12-29T13:53:57;3.22;;;1.00;;
41815;SDS011;27814;53.452;-6.180;2022-12-29T13:56:35;4.00;;;1.40;;
41815;SDS011;27814;53.452;-6.180;2022-12-29T13:59:11;3.90;;;1.17;;
41815;SDS011;27814;53.452;-6.180;2022-12-29T14:01:48;5.88;;;1.88;;
41815;SDS011;27814;53.452;-6.180;2022-12-29T14:04:23;4.55;;;1.30;;
41815;SDS011;27814;53.452;-6.180;2022-12-29T14:06:58;4.43;;;1.30;;
41815;SDS011;27814;53.452;-6.180;2022-12-29T14:09:38;3.60;;;1.30;;
41815;SDS011;27814;53.452;-6.180;2022-12-29T14:15:06;5.33;;;1.57;;
41815;SDS011;27814;53.452;-6.180;2022-12-29T14:17:59;7.75;;;2.80;;
41815;SDS011;27814;53.452;-6.180;2022-12-29T14:20:38;5.55;;;2.22;;
41815;SDS011;27814;53.452;-6.180;2022-12-29T14:23:25;7.43;;;2.92;;
41815;SDS011;27814;53.452;-6.180;2022-12-29T14:25:57;4.10;;;2.08;;
41815;SDS011;27814;53.452;-6.180;2022-12-29T14:28:44;9.43;;;2.67;;
41815;SDS011;27814;53.452;-6.180;2022-12-29T14:34:25;5.55;;;2.00;;
41815;SDS011;27814;53.452;-6.180;2022-12-29T14:36:56;6.38;;;2.17;;
41815;SDS011;27814;53.452;-6.180;2022-12-29T14:39:36;5.95;;;2.40;;
41815;SDS011;27814;53.452;-6.180;2022-12-29T14:42:10;4.07;;;1.40;;
41815;SDS011;27814;53.452;-6.180;2022-12-29T14:44:47;4.50;;;1.30;;
41815;SDS011;27814;53.452;-6.180;2022-12-29T14:47:18;4.93;;;1.42;;
41815;SDS011;27814;53.452;-6.180;2022-12-29T14:49:50;4.70;;;1.60;;
41815;SDS011;27814;53.452;-6.180;2022-12-29T14:52:20;4.03;;;1.40;;
41815;SDS011;27814;53.452;-6.180;2022-12-29T14:54:51;5.45;;;1.20;;
41815;SDS011;27814;53.452;-6.180;2022-12-29T14:57:22;4.97;;;1.70;;
41815;SDS011;27814;53.452;-6.180;2022-12-29T14:59:59;2.75;;;1.27;;
41815;SDS011;27814;53.452;-6.180;2022-12-29T15:02:34;4.90;;;1.40;;
41815;SDS011;27814;53.452;-6.180;2022-12-29T15:05:19;4.95;;;1.60;;
41815;SDS011;27814;53.452;-6.180;2022-12-29T15:07:57;5.97;;;1.80;;
41815;SDS011;27814;53.452;-6.180;2022-12-29T15:10:27;4.90;;;1.93;;
41815;SDS011;27814;53.452;-6.180;2022-12-29T15:13:05;3.58;;;1.60;;
41815;SDS011;27814;53.452;-6.180;2022-12-29T15:15:43;4.15;;;1.58;;
41815;SDS011;27814;53.452;-6.180;2022-12-29T15:18:13;4.60;;;1.63;;
41815;SDS011;27814;53.452;-6.180;2022-12-29T15:20:53;6.65;;;2.10;;
41815;SDS011;27814;53.452;-6.180;2022-12-29T15:23:24;5.53;;;1.60;;
41815;SDS011;27814;53.452;-6.180;2022-12-29T15:25:54;3.90;;;1.60;;
41815;SDS011;27814;53.452;-6.180;2022-12-29T15:28:24;6.70;;;1.73;;
41815;SDS011;27814;53.452;-6.180;2022-12-29T15:30:56;5.90;;;1.83;;
41815;SDS011;27814;53.452;-6.180;2022-12-29T15:33:31;5.75;;;1.90;;
41815;SDS011;27814;53.452;-6.180;2022-12-29T15:36:10;7.30;;;2.60;;
41815;SDS011;27814;53.452;-6.180;2022-12-29T15:38:40;6.70;;;2.35;;
41815;SDS011;27814;53.452;-6.180;2022-12-29T15:41:13;6.03;;;1.80;;